createdAt,value
2023-03-23T00:01:15.754Z,12.80
2023-03-23T00:03:43.838Z,12.70
2023-03-23T00:06:10.697Z,12.70
2023-03-23T00:08:46.717Z,12.70
2023-03-23T00:11:15.922Z,12.70
2023-03-23T00:13:44.820Z,12.70
2023-03-23T00:16:18.127Z,12.70
2023-03-23T00:18:46.200Z,12.70
2023-03-23T00:21:13.080Z,12.70
2023-03-23T00:23:40.730Z,12.80
2023-03-23T00:26:07.681Z,12.80
2023-03-23T00:28:34.830Z,12.70
2023-03-23T00:31:04.883Z,12.70
2023-03-23T00:33:39.170Z,12.70
2023-03-23T00:36:06.961Z,12.70
2023-03-23T00:38:33.872Z,12.70
2023-03-23T00:41:03.853Z,12.70
2023-03-23T00:43:31.968Z,12.70
2023-03-23T00:46:02.150Z,12.70
2023-03-23T00:48:30.284Z,12.70
2023-03-23T00:50:57.482Z,12.70
2023-03-23T00:53:24.305Z,12.70
2023-03-23T00:55:51.523Z,12.70
2023-03-23T00:58:18.410Z,12.70
2023-03-23T01:00:45.510Z,12.60
2023-03-23T01:03:19.239Z,12.60
2023-03-23T01:05:52.867Z,12.60
2023-03-23T01:08:20.585Z,12.60
2023-03-23T01:10:47.630Z,12.70
2023-03-23T01:13:15.148Z,12.70
2023-03-23T01:15:43.185Z,12.70
2023-03-23T01:18:11.113Z,12.60
2023-03-23T01:20:38.558Z,12.70
2023-03-23T01:23:05.523Z,12.70
2023-03-23T01:25:35.994Z,12.70
2023-03-23T01:28:03.364Z,12.70
2023-03-23T01:30:30.182Z,12.70
2023-03-23T01:32:57.116Z,12.70
2023-03-23T01:35:24.091Z,12.70
2023-03-23T01:37:50.968Z,12.70
2023-03-23T01:40:18.144Z,12.70
2023-03-23T01:42:45.099Z,12.70
2023-03-23T01:45:20.961Z,12.70
2023-03-23T01:47:53.399Z,12.70
2023-03-23T01:50:24.226Z,12.70
2023-03-23T01:52:54.747Z,12.70
2023-03-23T01:55:23.250Z,12.70
2023-03-23T01:57:50.805Z,12.80
2023-03-23T02:00:17.969Z,12.80
2023-03-23T02:02:47.263Z,12.70
2023-03-23T02:05:25.921Z,12.70
2023-03-23T02:07:54.474Z,12.70
2023-03-23T02:10:21.324Z,12.70
2023-03-23T02:12:48.289Z,12.60
2023-03-23T02:15:17.951Z,12.60
2023-03-23T02:17:57.447Z,12.60
2023-03-23T02:21:04.157Z,12.60
2023-03-23T02:23:57.025Z,12.60
2023-03-23T02:27:05.846Z,12.60
2023-03-23T02:29:47.102Z,12.50
2023-03-23T02:32:32.648Z,12.50
2023-03-23T02:35:12.363Z,12.50
2023-03-23T02:37:49.725Z,12.50
2023-03-23T02:40:26.112Z,12.50
2023-03-23T02:42:56.742Z,12.50
2023-03-23T02:45:25.432Z,12.50
2023-03-23T02:47:55.775Z,12.50
2023-03-23T02:50:26.060Z,12.50
2023-03-23T02:52:55.581Z,12.40
2023-03-23T02:55:27.090Z,12.50
2023-03-23T02:57:54.970Z,12.50
2023-03-23T03:00:22.621Z,12.50
2023-03-23T03:02:55.504Z,12.50
2023-03-23T03:05:39.376Z,12.50
2023-03-23T03:08:40.600Z,12.50
2023-03-23T03:11:09.402Z,12.50
2023-03-23T03:13:52.051Z,12.50
2023-03-23T03:16:38.467Z,12.50
2023-03-23T03:19:12.771Z,12.50
2023-03-23T03:21:43.953Z,12.40
2023-03-23T03:24:14.629Z,12.50
2023-03-23T03:26:48.621Z,12.50
2023-03-23T03:29:22.231Z,12.50
2023-03-23T03:31:51.796Z,12.60
2023-03-23T03:34:19.030Z,12.50
2023-03-23T03:36:47.487Z,12.50
2023-03-23T03:39:17.028Z,12.50
2023-03-23T03:41:44.475Z,12.50
2023-03-23T03:44:12.009Z,12.50
2023-03-23T03:46:39.570Z,12.50
2023-03-23T03:49:09.423Z,12.50
2023-03-23T03:51:36.676Z,12.60
2023-03-23T03:54:04.430Z,12.60
2023-03-23T03:56:32.698Z,12.60
2023-03-23T03:59:00.677Z,12.60
2023-03-23T04:01:47.468Z,12.60
2023-03-23T04:04:14.832Z,12.60
2023-03-23T04:06:41.685Z,12.60
2023-03-23T04:09:09.060Z,12.60
2023-03-23T04:11:36.444Z,12.60
2023-03-23T04:14:03.751Z,12.60
2023-03-23T04:16:30.743Z,12.60
2023-03-23T04:18:58.118Z,12.60
2023-03-23T04:21:25.012Z,12.60
2023-03-23T04:23:52.021Z,12.60
2023-03-23T04:26:19.640Z,12.60
2023-03-23T04:28:47.420Z,12.60
2023-03-23T04:31:15.957Z,12.60
2023-03-23T04:33:57.549Z,12.60
2023-03-23T04:36:26.876Z,12.60
2023-03-23T04:39:14.551Z,12.60
2023-03-23T04:41:41.713Z,12.60
2023-03-23T04:44:09.222Z,12.60
2023-03-23T04:46:36.164Z,12.70
2023-03-23T04:49:03.699Z,12.70
2023-03-23T04:51:33.965Z,12.60
2023-03-23T04:54:01.086Z,12.70
2023-03-23T04:56:27.916Z,12.60
2023-03-23T04:58:55.072Z,12.70
2023-03-23T05:01:22.518Z,12.70
2023-03-23T05:03:49.564Z,12.70
2023-03-23T05:06:16.461Z,12.60
2023-03-23T05:08:43.290Z,12.60
2023-03-23T05:11:10.586Z,12.60
2023-03-23T05:13:37.396Z,12.60
2023-03-23T05:16:05.978Z,12.60
2023-03-23T05:18:33.764Z,12.70
2023-03-23T05:21:01.835Z,12.70
2023-03-23T05:23:31.894Z,12.60
2023-03-23T05:26:03.750Z,12.70
2023-03-23T05:28:31.611Z,12.70
2023-03-23T05:30:58.454Z,12.70
2023-03-23T05:33:25.358Z,12.70
2023-03-23T05:35:52.253Z,12.70
2023-03-23T05:38:19.389Z,12.70
2023-03-23T05:40:46.224Z,12.70
2023-03-23T05:43:13.171Z,12.60
2023-03-23T05:45:40.675Z,12.70
2023-03-23T05:48:07.677Z,12.70
2023-03-23T05:50:34.504Z,12.70
2023-03-23T05:53:01.629Z,12.70
2023-03-23T05:55:28.498Z,12.70
2023-03-23T05:57:55.321Z,12.70
2023-03-23T06:00:24.509Z,12.70
2023-03-23T06:02:55.725Z,12.70
2023-03-23T06:05:23.349Z,12.70
2023-03-23T06:07:50.474Z,12.70
2023-03-23T06:10:17.745Z,12.70
2023-03-23T06:12:44.752Z,12.70
2023-03-23T06:15:12.271Z,12.80
2023-03-23T06:17:39.182Z,12.80
2023-03-23T06:20:12.985Z,12.80
2023-03-23T06:22:40.800Z,12.90
2023-03-23T06:25:09.596Z,12.90
2023-03-23T06:27:36.690Z,12.90
2023-03-23T06:30:05.005Z,12.90
2023-03-23T06:32:33.048Z,12.90
2023-03-23T06:35:00.340Z,12.90
2023-03-23T06:37:27.213Z,13.00
2023-03-23T06:39:55.102Z,13.10
2023-03-23T06:42:25.213Z,13.10
2023-03-23T06:44:52.786Z,13.10
2023-03-23T06:47:19.605Z,13.20
2023-03-23T06:49:46.729Z,13.30
2023-03-23T06:52:13.585Z,13.20
2023-03-23T06:54:41.396Z,13.20
2023-03-23T06:57:09.053Z,13.10
2023-03-23T06:59:35.912Z,13.10
2023-03-23T07:02:02.932Z,13.10
2023-03-23T07:04:29.773Z,13.10
2023-03-23T07:06:57.551Z,13.10
2023-03-23T07:09:37.684Z,13.20
2023-03-23T07:12:10.842Z,13.20
2023-03-23T07:14:37.724Z,13.30
2023-03-23T07:17:05.157Z,13.30
2023-03-23T07:19:32.096Z,13.30
2023-03-23T07:21:58.938Z,13.30
2023-03-23T07:24:26.076Z,13.30
2023-03-23T07:26:52.988Z,13.40
2023-03-23T07:29:19.952Z,13.40
2023-03-23T07:31:47.092Z,13.30
2023-03-23T07:34:14.609Z,13.30
2023-03-23T07:36:41.788Z,13.30
2023-03-23T07:39:08.688Z,13.30
2023-03-23T07:41:35.697Z,13.40
2023-03-23T07:44:02.688Z,13.40
2023-03-23T07:46:29.577Z,13.40
2023-03-23T07:48:57.649Z,13.40
2023-03-23T07:51:25.863Z,13.40
2023-03-23T07:53:52.819Z,13.40
2023-03-23T07:56:20.839Z,13.50
2023-03-23T07:58:48.213Z,13.50
2023-03-23T08:01:15.401Z,13.60
2023-03-23T08:03:43.016Z,13.60
2023-03-23T08:06:10.912Z,13.70
2023-03-23T08:08:38.337Z,13.70
2023-03-23T08:11:05.405Z,13.70
2023-03-23T08:13:36.944Z,13.70
2023-03-23T08:16:04.840Z,13.80
2023-03-23T08:18:32.783Z,13.80
2023-03-23T08:20:59.680Z,13.90
2023-03-23T08:23:26.644Z,14.10
2023-03-23T08:25:54.679Z,14.20
2023-03-23T08:28:21.531Z,14.10
2023-03-23T08:30:49.473Z,14.10
2023-03-23T08:33:16.917Z,14.10
2023-03-23T08:35:45.124Z,14.10
2023-03-23T08:38:12.648Z,14.10
2023-03-23T08:40:40.510Z,13.90
2023-03-23T08:43:07.432Z,13.80
2023-03-23T08:45:34.285Z,13.70
2023-03-23T08:48:01.235Z,13.70
2023-03-23T08:50:29.302Z,13.70
2023-03-23T08:52:56.306Z,13.60
2023-03-23T08:55:23.608Z,13.50
2023-03-23T08:57:50.481Z,13.30
2023-03-23T09:00:20.635Z,13.20
2023-03-23T09:02:49.544Z,12.70
2023-03-23T09:05:18.246Z,12.20
2023-03-23T09:07:50.809Z,11.90
2023-03-23T09:10:18.726Z,11.70
2023-03-23T09:12:47.278Z,11.50
2023-03-23T09:15:21.094Z,11.30
2023-03-23T09:17:52.427Z,11.10
2023-03-23T09:20:22.972Z,11.10
2023-03-23T09:22:52.466Z,11.00
2023-03-23T09:25:22.592Z,10.90
2023-03-23T09:27:57.619Z,10.90
2023-03-23T09:30:27.604Z,11.00
2023-03-23T09:32:55.089Z,11.00
2023-03-23T09:35:22.991Z,11.00
2023-03-23T09:37:51.629Z,10.90
2023-03-23T09:40:25.368Z,10.90
2023-03-23T09:43:13.170Z,10.90
2023-03-23T09:45:53.080Z,10.90
2023-03-23T09:48:35.514Z,10.80
2023-03-23T09:51:12.713Z,10.80
2023-03-23T09:53:43.740Z,10.80
2023-03-23T09:56:13.812Z,10.80
2023-03-23T09:58:49.856Z,10.70
2023-03-23T10:01:24.549Z,10.70
2023-03-23T10:03:59.480Z,10.70
2023-03-23T10:06:26.280Z,10.60
2023-03-23T10:11:36.772Z,10.80
2023-03-23T10:14:25.613Z,10.80
2023-03-23T10:17:05.034Z,10.80
2023-03-23T10:19:47.602Z,10.90
2023-03-23T10:22:26.613Z,11.00
2023-03-23T10:25:07.629Z,11.00
2023-03-23T10:27:43.625Z,10.80
2023-03-23T10:30:37.119Z,10.90
2023-03-23T10:33:27.238Z,11.00
2023-03-23T10:36:27.515Z,11.30
2023-03-23T10:39:09.114Z,11.40
2023-03-23T10:41:35.974Z,11.30
2023-03-23T10:44:10.338Z,11.40
2023-03-23T10:46:50.165Z,11.40
2023-03-23T10:49:24.493Z,11.50
2023-03-23T10:52:01.451Z,11.80
2023-03-23T10:54:39.277Z,11.90
2023-03-23T10:57:22.929Z,11.80
2023-03-23T10:59:50.244Z,11.60
2023-03-23T11:02:29.431Z,11.40
2023-03-23T11:05:03.091Z,11.30
2023-03-23T11:07:36.837Z,11.30
2023-03-23T11:10:36.406Z,11.20
2023-03-23T11:13:05.498Z,11.20
2023-03-23T11:15:41.820Z,11.30
2023-03-23T11:18:19.149Z,11.30
2023-03-23T11:20:49.539Z,11.40
2023-03-23T11:23:43.166Z,11.60
2023-03-23T11:26:22.299Z,11.60
2023-03-23T11:29:19.777Z,11.60
2023-03-23T11:31:53.377Z,11.70
2023-03-23T11:34:24.844Z,11.80
2023-03-23T11:37:10.883Z,11.80
2023-03-23T11:39:50.696Z,11.90
2023-03-23T11:42:30.720Z,12.00
2023-03-23T11:45:20.372Z,12.30
2023-03-23T11:48:07.975Z,12.60
2023-03-23T11:50:54.994Z,12.70
2023-03-23T11:53:46.948Z,12.60
2023-03-23T11:56:37.384Z,12.40
2023-03-23T11:59:13.120Z,12.30
2023-03-23T12:02:22.268Z,12.30
2023-03-23T12:05:11.599Z,12.40
2023-03-23T12:08:01.719Z,12.50
2023-03-23T12:10:40.819Z,12.70
2023-03-23T12:13:34.294Z,12.70
2023-03-23T12:16:13.654Z,12.70
2023-03-23T12:18:57.468Z,12.80
2023-03-23T12:21:49.762Z,13.00
2023-03-23T12:24:50.069Z,13.10
2023-03-23T12:27:43.949Z,13.10
2023-03-23T12:30:32.488Z,13.20
2023-03-23T12:33:18.383Z,13.20
2023-03-23T12:36:03.958Z,13.30
2023-03-23T12:38:40.556Z,13.40
2023-03-23T12:41:19.386Z,13.40
2023-03-23T12:44:11.117Z,13.60
2023-03-23T12:47:14.443Z,13.70
2023-03-23T12:49:58.016Z,13.50
2023-03-23T12:52:42.294Z,13.40
2023-03-23T12:55:22.540Z,13.40
2023-03-23T12:58:02.213Z,13.50
2023-03-23T13:00:28.978Z,13.60
2023-03-23T13:03:07.174Z,13.60
2023-03-23T13:05:45.749Z,13.60
2023-03-23T13:08:18.953Z,13.50
2023-03-23T13:10:49.642Z,13.50
2023-03-23T13:13:21.087Z,13.60
2023-03-23T13:16:13.653Z,13.70
2023-03-23T13:19:11.174Z,13.90
2023-03-23T13:21:53.242Z,14.10
2023-03-23T13:24:23.778Z,14.40
2023-03-23T13:26:51.810Z,14.60
2023-03-23T13:29:21.388Z,14.60
2023-03-23T13:31:50.821Z,14.60
2023-03-23T13:34:27.221Z,14.60
2023-03-23T13:37:06.651Z,14.70
2023-03-23T13:39:57.662Z,14.70
2023-03-23T13:42:27.384Z,14.70
2023-03-23T13:44:54.298Z,14.60
2023-03-23T13:47:32.372Z,14.50
2023-03-23T13:50:12.208Z,14.40
2023-03-23T13:52:45.176Z,14.40
2023-03-23T13:55:27.089Z,14.40
2023-03-23T13:58:18.854Z,14.40
2023-03-23T14:01:12.417Z,14.60
2023-03-23T14:03:47.249Z,14.70
2023-03-23T14:06:17.727Z,14.60
2023-03-23T14:08:46.791Z,14.60
2023-03-23T14:11:27.379Z,14.30
2023-03-23T14:14:06.730Z,14.20
2023-03-23T14:16:36.649Z,14.30
2023-03-23T14:19:06.335Z,14.40
2023-03-23T14:21:42.481Z,14.60
2023-03-23T14:24:25.878Z,14.70
2023-03-23T14:27:13.271Z,14.70
2023-03-23T14:29:40.313Z,14.80
2023-03-23T14:32:11.498Z,14.80
2023-03-23T14:34:38.436Z,14.80
2023-03-23T14:37:05.869Z,14.90
2023-03-23T14:39:34.959Z,14.80
2023-03-23T14:42:17.425Z,14.70
2023-03-23T14:44:47.560Z,14.60
2023-03-23T14:47:25.106Z,14.60
2023-03-23T14:49:57.046Z,14.50
2023-03-23T14:52:29.870Z,14.40
2023-03-23T14:55:08.645Z,14.40
2023-03-23T14:57:35.600Z,14.30
2023-03-23T15:00:02.770Z,14.30
2023-03-23T15:02:32.366Z,14.30
2023-03-23T15:05:03.453Z,14.20
2023-03-23T15:07:43.933Z,14.20
2023-03-23T15:10:21.361Z,14.30
2023-03-23T15:12:50.121Z,14.30
2023-03-23T15:15:19.996Z,14.30
2023-03-23T15:17:47.638Z,14.40
2023-03-23T15:20:20.633Z,14.40
2023-03-23T15:22:49.241Z,14.40
2023-03-23T15:25:23.661Z,14.40
2023-03-23T15:27:56.772Z,14.40
2023-03-23T15:30:23.592Z,14.50
2023-03-23T15:32:57.355Z,14.50
2023-03-23T15:35:26.974Z,14.40
2023-03-23T15:38:03.528Z,14.40
2023-03-23T15:40:38.990Z,14.50
2023-03-23T15:43:28.371Z,14.60
2023-03-23T15:46:01.627Z,14.80
2023-03-23T15:48:29.513Z,14.80
2023-03-23T15:50:56.687Z,14.80
2023-03-23T15:53:26.375Z,14.80
2023-03-23T15:55:53.262Z,14.80
2023-03-23T15:58:20.272Z,14.70
2023-03-23T16:00:48.175Z,14.60
2023-03-23T16:03:30.810Z,14.50
2023-03-23T16:06:00.202Z,14.50
2023-03-23T16:08:27.367Z,14.60
2023-03-23T16:10:54.365Z,14.70
2023-03-23T16:13:21.663Z,14.80
2023-03-23T16:15:49.051Z,14.80
2023-03-23T16:18:21.793Z,14.80
2023-03-23T16:20:49.968Z,14.80
2023-03-23T16:23:17.549Z,14.80
2023-03-23T16:25:45.011Z,14.70
2023-03-23T16:28:15.912Z,14.80
2023-03-23T16:30:44.353Z,14.70
2023-03-23T16:33:11.347Z,14.70
2023-03-23T16:35:38.246Z,14.60
2023-03-23T16:38:07.700Z,14.60
2023-03-23T16:40:39.367Z,14.50
2023-03-23T16:43:09.256Z,14.50
2023-03-23T16:45:38.219Z,14.40
2023-03-23T16:48:06.247Z,14.50
2023-03-23T16:50:34.181Z,14.40
2023-03-23T16:53:01.835Z,14.40
2023-03-23T16:55:30.040Z,14.30
2023-03-23T16:58:13.113Z,14.30
2023-03-23T17:00:45.742Z,14.30
2023-03-23T17:03:13.605Z,14.30
2023-03-23T17:05:41.196Z,14.30
2023-03-23T17:08:08.174Z,14.40
2023-03-23T17:10:37.864Z,14.40
2023-03-23T17:13:04.902Z,14.40
2023-03-23T17:15:31.871Z,14.40
2023-03-23T17:18:20.721Z,14.30
2023-03-23T17:20:47.613Z,14.20
2023-03-23T17:23:14.628Z,14.00
2023-03-23T17:25:42.052Z,14.00
2023-03-23T17:28:09.229Z,14.00
2023-03-23T17:30:36.109Z,13.90
2023-03-23T17:33:03.544Z,13.80
2023-03-23T17:35:30.673Z,13.70
2023-03-23T17:37:58.316Z,13.60
2023-03-23T17:40:25.647Z,13.60
2023-03-23T17:42:52.518Z,13.60
2023-03-23T17:45:19.563Z,13.60
2023-03-23T17:47:46.444Z,13.70
2023-03-23T17:50:13.864Z,13.70
2023-03-23T17:52:41.863Z,13.70
2023-03-23T17:55:09.207Z,13.80
2023-03-23T17:57:36.371Z,13.80
2023-03-23T18:00:07.513Z,13.80
2023-03-23T18:02:35.013Z,13.80
2023-03-23T18:05:01.938Z,13.80
2023-03-23T18:07:28.851Z,13.80
2023-03-23T18:10:00.476Z,13.80
2023-03-23T18:12:27.865Z,13.80
2023-03-23T18:14:58.873Z,13.80
2023-03-23T18:17:26.545Z,13.80
2023-03-23T18:19:53.851Z,13.70
2023-03-23T18:22:20.817Z,13.70
2023-03-23T18:24:47.721Z,13.70
2023-03-23T18:27:15.199Z,13.70
2023-03-23T18:29:42.148Z,13.70
2023-03-23T18:32:09.099Z,13.70
2023-03-23T18:34:37.920Z,13.70
2023-03-23T18:37:04.866Z,13.70
2023-03-23T18:39:34.260Z,13.70
2023-03-23T18:42:01.195Z,13.60
2023-03-23T18:44:28.162Z,13.50
2023-03-23T18:46:54.998Z,13.40
2023-03-23T18:49:22.217Z,13.30
2023-03-23T18:51:49.137Z,13.30
2023-03-23T18:54:17.550Z,13.30
2023-03-23T18:56:44.759Z,13.10
2023-03-23T18:59:11.715Z,13.00
2023-03-23T19:01:38.705Z,13.00
2023-03-23T19:04:06.497Z,13.00
2023-03-23T19:06:35.214Z,13.00
2023-03-23T19:09:03.572Z,12.90
2023-03-23T19:11:30.871Z,12.90
2023-03-23T19:14:03.073Z,13.00
2023-03-23T19:16:36.196Z,13.00
2023-03-23T19:19:05.264Z,12.90
2023-03-23T19:21:32.937Z,12.90
2023-03-23T19:24:01.361Z,13.00
2023-03-23T19:26:34.845Z,12.90
2023-03-23T19:29:25.300Z,12.90
2023-03-23T19:31:52.553Z,12.90
2023-03-23T19:34:19.452Z,13.00
2023-03-23T19:36:54.233Z,13.00
2023-03-23T19:39:23.313Z,12.90
2023-03-23T19:41:51.163Z,12.90
2023-03-23T19:44:18.188Z,13.00
2023-03-23T19:46:45.537Z,13.00
2023-03-23T19:49:12.443Z,13.10
2023-03-23T19:51:39.808Z,13.20
2023-03-23T19:54:10.040Z,13.20
2023-03-23T19:56:37.281Z,13.30
2023-03-23T19:59:05.159Z,13.30
2023-03-23T20:01:32.283Z,13.30
2023-03-23T20:04:00.108Z,13.30
2023-03-23T20:06:29.334Z,13.20
2023-03-23T20:11:21.849Z,13.30
2023-03-23T20:13:49.131Z,13.30
2023-03-23T20:16:17.588Z,13.40
2023-03-23T20:18:46.460Z,13.40
2023-03-23T20:21:20.328Z,13.40
2023-03-23T20:23:48.659Z,13.50
2023-03-23T20:26:18.269Z,13.50
2023-03-23T20:28:45.841Z,13.50
2023-03-23T20:31:23.473Z,13.60
2023-03-23T20:34:00.175Z,13.60
2023-03-23T20:36:36.187Z,13.60
2023-03-23T20:39:08.253Z,13.60
2023-03-23T20:41:36.483Z,13.60
2023-03-23T20:44:04.584Z,13.60
2023-03-23T20:46:32.080Z,13.70
2023-03-23T20:48:59.012Z,13.70
2023-03-23T20:51:25.995Z,13.60
2023-03-23T20:53:53.400Z,13.60
2023-03-23T20:56:20.509Z,13.60
2023-03-23T20:58:47.816Z,13.50
2023-03-23T21:01:15.450Z,13.50
2023-03-23T21:03:44.095Z,13.50
2023-03-23T21:06:11.299Z,13.40
2023-03-23T21:08:40.258Z,13.40
2023-03-23T21:11:09.991Z,13.30
2023-03-23T21:13:36.953Z,13.30
2023-03-23T21:16:05.759Z,13.30
2023-03-23T21:18:32.711Z,13.30
2023-03-23T21:21:00.550Z,13.30
2023-03-23T21:23:29.781Z,13.30
2023-03-23T21:26:01.920Z,13.30
2023-03-23T21:28:28.844Z,13.30
2023-03-23T21:31:00.744Z,13.30
2023-03-23T21:33:27.686Z,13.30
2023-03-23T21:35:54.917Z,13.20
2023-03-23T21:38:26.298Z,13.20
2023-03-23T21:40:54.665Z,13.20
2023-03-23T21:43:27.811Z,13.10
2023-03-23T21:45:57.037Z,13.00
2023-03-23T21:48:25.268Z,13.00
2023-03-23T21:50:53.215Z,12.90
2023-03-23T21:53:20.858Z,12.90
2023-03-23T21:55:51.836Z,12.80
2023-03-23T21:58:24.298Z,12.80
2023-03-23T22:00:54.240Z,12.70
2023-03-23T22:03:25.658Z,12.70
2023-03-23T22:05:57.049Z,12.60
2023-03-23T22:08:28.887Z,12.50
2023-03-23T22:11:04.555Z,12.50
2023-03-23T22:13:35.016Z,12.40
2023-03-23T22:16:03.892Z,12.40
2023-03-23T22:18:31.292Z,12.30
2023-03-23T22:20:59.183Z,12.20
2023-03-23T22:23:27.059Z,12.20
2023-03-23T22:25:54.720Z,12.20
2023-03-23T22:28:23.053Z,12.10
2023-03-23T22:30:49.932Z,12.10
2023-03-23T22:33:17.905Z,12.10
2023-03-23T22:35:47.400Z,12.00
2023-03-23T22:38:14.966Z,11.90
2023-03-23T22:40:42.984Z,11.90
2023-03-23T22:43:10.193Z,11.80
2023-03-23T22:45:37.217Z,11.80
2023-03-23T22:48:06.965Z,11.80
2023-03-23T22:50:33.964Z,11.80
2023-03-23T22:53:01.005Z,11.80
2023-03-23T22:55:27.882Z,11.70
2023-03-23T22:57:54.823Z,11.70
2023-03-23T23:00:21.849Z,11.70
2023-03-23T23:02:49.457Z,11.70
2023-03-23T23:05:16.729Z,11.70
2023-03-23T23:07:43.608Z,11.70
2023-03-23T23:10:10.885Z,11.70
2023-03-23T23:12:37.834Z,11.70
2023-03-23T23:15:06.216Z,11.70
2023-03-23T23:17:35.036Z,11.70
2023-03-23T23:20:05.788Z,11.70
2023-03-23T23:22:33.190Z,11.70
2023-03-23T23:25:00.769Z,11.70
2023-03-23T23:27:27.680Z,11.70
2023-03-23T23:29:54.621Z,11.70
2023-03-23T23:32:21.550Z,11.70
2023-03-23T23:34:53.048Z,11.70
2023-03-23T23:37:20.027Z,11.70
2023-03-23T23:39:47.278Z,11.70
2023-03-23T23:42:14.218Z,11.70
2023-03-23T23:44:41.405Z,11.70
2023-03-23T23:47:10.555Z,11.70
2023-03-23T23:49:37.950Z,11.70
2023-03-23T23:52:05.136Z,11.80
2023-03-23T23:54:32.203Z,11.80
2023-03-23T23:57:00.318Z,11.80
2023-03-23T23:59:29.078Z,11.80
